sensor_id;sensor_type;location;lat;lon;timestamp;pressure;altitude;pressure_sealevel;temperature;humidity
29371;BME280;16357;52.188;7.838;2022-10-10T00:00:47;100900.84;;;11.49;56.00
29371;BME280;16357;52.188;7.838;2022-10-10T00:03:14;100902.00;;;11.46;56.10
29371;BME280;16357;52.188;7.838;2022-10-10T00:05:42;100897.59;;;11.45;56.14
29371;BME280;16357;52.188;7.838;2022-10-10T00:08:09;100893.38;;;11.42;56.05
29371;BME280;16357;52.188;7.838;2022-10-10T00:10:35;100895.41;;;11.40;56.14
29371;BME280;16357;52.188;7.838;2022-10-10T00:13:03;100889.16;;;11.40;55.98
29371;BME280;16357;52.188;7.838;2022-10-10T00:15:30;100885.81;;;11.38;56.05
29371;BME280;16357;52.188;7.838;2022-10-10T00:17:56;100885.00;;;11.37;56.15
29371;BME280;16357;52.188;7.838;2022-10-10T00:20:23;100892.34;;;11.35;56.04
29371;BME280;16357;52.188;7.838;2022-10-10T00:22:49;100879.06;;;11.34;56.23
29371;BME280;16357;52.188;7.838;2022-10-10T00:25:16;100889.81;;;11.34;56.27
29371;BME280;16357;52.188;7.838;2022-10-10T00:27:42;100888.28;;;11.31;56.15
29371;BME280;16357;52.188;7.838;2022-10-10T00:30:09;100894.66;;;11.30;56.20
29371;BME280;16357;52.188;7.838;2022-10-10T00:32:36;100897.50;;;11.29;56.13
29371;BME280;16357;52.188;7.838;2022-10-10T00:35:04;100889.63;;;11.27;56.26
29371;BME280;16357;52.188;7.838;2022-10-10T00:37:30;100891.59;;;11.25;56.00
29371;BME280;16357;52.188;7.838;2022-10-10T00:39:57;100879.16;;;11.24;56.44
29371;BME280;16357;52.188;7.838;2022-10-10T00:42:23;100882.84;;;11.23;56.39
29371;BME280;16357;52.188;7.838;2022-10-10T00:47:45;100876.13;;;11.19;56.48
29371;BME280;16357;52.188;7.838;2022-10-10T00:50:12;100874.44;;;11.18;56.42
29371;BME280;16357;52.188;7.838;2022-10-10T00:52:38;100873.91;;;11.14;56.45
29371;BME280;16357;52.188;7.838;2022-10-10T00:55:05;100882.09;;;11.13;56.82
29371;BME280;16357;52.188;7.838;2022-10-10T00:57:32;100882.44;;;11.10;56.75
29371;BME280;16357;52.188;7.838;2022-10-10T00:59:59;100876.22;;;11.09;56.66
29371;BME280;16357;52.188;7.838;2022-10-10T01:02:25;100877.38;;;11.07;56.71
29371;BME280;16357;52.188;7.838;2022-10-10T01:04:52;100874.00;;;11.05;56.94
29371;BME280;16357;52.188;7.838;2022-10-10T01:07:21;100875.00;;;11.04;56.31
29371;BME280;16357;52.188;7.838;2022-10-10T01:09:50;100877.00;;;11.02;56.86
29371;BME280;16357;52.188;7.838;2022-10-10T01:12:30;100880.84;;;10.99;56.71
29371;BME280;16357;52.188;7.838;2022-10-10T01:17:56;100875.94;;;10.94;56.67
29371;BME280;16357;52.188;7.838;2022-10-10T01:20:43;100876.09;;;10.93;56.71
29371;BME280;16357;52.188;7.838;2022-10-10T01:23:37;100882.63;;;10.90;56.87
29371;BME280;16357;52.188;7.838;2022-10-10T01:26:26;100882.91;;;10.87;56.90
29371;BME280;16357;52.188;7.838;2022-10-10T01:29:09;100877.84;;;10.84;56.78
29371;BME280;16357;52.188;7.838;2022-10-10T01:31:41;100866.59;;;10.81;57.13
29371;BME280;16357;52.188;7.838;2022-10-10T01:34:16;100871.44;;;10.77;56.90
29371;BME280;16357;52.188;7.838;2022-10-10T01:39:30;100862.13;;;10.71;57.08
29371;BME280;16357;52.188;7.838;2022-10-10T01:42:05;100858.78;;;10.69;57.17
29371;BME280;16357;52.188;7.838;2022-10-10T01:44:35;100855.56;;;10.66;57.17
29371;BME280;16357;52.188;7.838;2022-10-10T01:47:01;100858.56;;;10.63;57.20
29371;BME280;16357;52.188;7.838;2022-10-10T01:49:31;100857.03;;;10.60;57.24
29371;BME280;16357;52.188;7.838;2022-10-10T01:55:12;100854.97;;;10.54;57.44
29371;BME280;16357;52.188;7.838;2022-10-10T02:00:22;100852.03;;;10.47;57.55
29371;BME280;16357;52.188;7.838;2022-10-10T02:05:45;100838.25;;;10.42;57.51
29371;BME280;16357;52.188;7.838;2022-10-10T02:08:20;100837.56;;;10.40;57.52
29371;BME280;16357;52.188;7.838;2022-10-10T02:10:52;100844.09;;;10.38;57.94
29371;BME280;16357;52.188;7.838;2022-10-10T02:13:22;100832.66;;;10.36;57.80
29371;BME280;16357;52.188;7.838;2022-10-10T02:15:52;100831.13;;;10.33;57.84
29371;BME280;16357;52.188;7.838;2022-10-10T02:18:22;100829.59;;;10.30;58.28
29371;BME280;16357;52.188;7.838;2022-10-10T02:20:51;100828.88;;;10.28;57.98
29371;BME280;16357;52.188;7.838;2022-10-10T02:23:20;100831.72;;;10.27;58.20
29371;BME280;16357;52.188;7.838;2022-10-10T02:25:52;100826.34;;;10.27;58.14
29371;BME280;16357;52.188;7.838;2022-10-10T02:28:24;100823.94;;;10.24;58.54
29371;BME280;16357;52.188;7.838;2022-10-10T02:30:58;100820.59;;;10.22;58.54
29371;BME280;16357;52.188;7.838;2022-10-10T02:34:17;100827.78;;;10.21;58.71
29371;BME280;16357;52.188;7.838;2022-10-10T02:36:24;100825.25;;;10.20;58.18
29371;BME280;16357;52.188;7.838;2022-10-10T02:38:53;100819.19;;;10.18;58.49
29371;BME280;16357;52.188;7.838;2022-10-10T02:41:21;100813.13;;;10.16;58.77
29371;BME280;16357;52.188;7.838;2022-10-10T02:43:50;100808.94;;;10.13;58.85
29371;BME280;16357;52.188;7.838;2022-10-10T02:46:17;100812.63;;;10.12;58.86
29371;BME280;16357;52.188;7.838;2022-10-10T02:48:43;100812.75;;;10.10;59.06
29371;BME280;16357;52.188;7.838;2022-10-10T02:51:11;100809.22;;;10.10;58.79
29371;BME280;16357;52.188;7.838;2022-10-10T02:53:38;100812.09;;;10.08;58.81
29371;BME280;16357;52.188;7.838;2022-10-10T02:56:04;100808.72;;;10.06;59.12
29371;BME280;16357;52.188;7.838;2022-10-10T02:58:31;100810.56;;;10.06;58.87
29371;BME280;16357;52.188;7.838;2022-10-10T03:00:57;100800.81;;;10.05;59.04
29371;BME280;16357;52.188;7.838;2022-10-10T03:03:24;100804.50;;;10.04;59.25
29371;BME280;16357;52.188;7.838;2022-10-10T03:05:51;100793.91;;;10.02;59.22
29371;BME280;16357;52.188;7.838;2022-10-10T03:08:17;100794.91;;;10.01;59.04
29371;BME280;16357;52.188;7.838;2022-10-10T03:10:58;100784.19;;;10.01;58.94
29371;BME280;16357;52.188;7.838;2022-10-10T03:13:25;100791.53;;;9.99;58.79
29371;BME280;16357;52.188;7.838;2022-10-10T03:15:52;100795.22;;;9.98;59.00
29371;BME280;16357;52.188;7.838;2022-10-10T03:18:19;100795.38;;;9.97;59.21
29371;BME280;16357;52.188;7.838;2022-10-10T03:20:49;100797.19;;;9.96;59.20
29371;BME280;16357;52.188;7.838;2022-10-10T03:23:16;100791.16;;;9.94;59.18
29371;BME280;16357;52.188;7.838;2022-10-10T03:25:43;100792.16;;;9.93;59.26
29371;BME280;16357;52.188;7.838;2022-10-10T03:28:10;100785.09;;;9.92;59.07
29371;BME280;16357;52.188;7.838;2022-10-10T03:30:37;100785.25;;;9.91;59.27
29371;BME280;16357;52.188;7.838;2022-10-10T03:33:04;100787.09;;;9.90;59.49
29371;BME280;16357;52.188;7.838;2022-10-10T03:35:31;100782.72;;;9.89;59.42
29371;BME280;16357;52.188;7.838;2022-10-10T03:37:58;100780.03;;;9.89;59.39
29371;BME280;16357;52.188;7.838;2022-10-10T03:40:24;100776.53;;;9.88;59.79
29371;BME280;16357;52.188;7.838;2022-10-10T03:42:51;100781.75;;;9.90;59.58
29371;BME280;16357;52.188;7.838;2022-10-10T03:45:18;100781.75;;;9.90;59.50
29371;BME280;16357;52.188;7.838;2022-10-10T03:47:45;100773.69;;;9.90;59.45
29371;BME280;16357;52.188;7.838;2022-10-10T03:50:11;100775.38;;;9.91;59.42
29371;BME280;16357;52.188;7.838;2022-10-10T03:52:38;100774.38;;;9.92;59.54
29371;BME280;16357;52.188;7.838;2022-10-10T03:55:04;100770.84;;;9.92;59.83
29371;BME280;16357;52.188;7.838;2022-10-10T03:57:31;100768.16;;;9.92;59.59
29371;BME280;16357;52.188;7.838;2022-10-10T03:59:57;100761.97;;;9.91;59.60
29371;BME280;16357;52.188;7.838;2022-10-10T04:02:24;100763.66;;;9.92;59.91
29371;BME280;16357;52.188;7.838;2022-10-10T04:04:50;100763.81;;;9.91;59.67
29371;BME280;16357;52.188;7.838;2022-10-10T04:07:16;100757.44;;;9.92;59.85
29371;BME280;16357;52.188;7.838;2022-10-10T04:09:43;100756.63;;;9.91;59.73
29371;BME280;16357;52.188;7.838;2022-10-10T04:12:09;100763.66;;;9.92;60.00
29371;BME280;16357;52.188;7.838;2022-10-10T04:14:35;100751.94;;;9.93;59.83
29371;BME280;16357;52.188;7.838;2022-10-10T04:17:02;100748.44;;;9.93;59.95
29371;BME280;16357;52.188;7.838;2022-10-10T04:19:28;100745.59;;;9.94;60.17
29371;BME280;16357;52.188;7.838;2022-10-10T04:21:55;100742.91;;;9.94;59.73
29371;BME280;16357;52.188;7.838;2022-10-10T04:24:21;100741.91;;;9.95;59.67
29371;BME280;16357;52.188;7.838;2022-10-10T04:26:47;100741.91;;;9.95;59.81
29371;BME280;16357;52.188;7.838;2022-10-10T04:29:14;100743.59;;;9.96;59.79
29371;BME280;16357;52.188;7.838;2022-10-10T04:31:40;100751.66;;;9.96;59.92
29371;BME280;16357;52.188;7.838;2022-10-10T04:34:07;100742.59;;;9.97;59.79
29371;BME280;16357;52.188;7.838;2022-10-10T04:36:33;100737.09;;;9.99;60.26
29371;BME280;16357;52.188;7.838;2022-10-10T04:38:59;100730.91;;;9.98;59.78
29371;BME280;16357;52.188;7.838;2022-10-10T04:41:26;100728.22;;;9.98;60.07
29371;BME280;16357;52.188;7.838;2022-10-10T04:43:53;100734.41;;;9.99;60.14
29371;BME280;16357;52.188;7.838;2022-10-10T04:46:19;100733.59;;;9.98;59.93
29371;BME280;16357;52.188;7.838;2022-10-10T04:48:45;100729.91;;;9.99;60.23
29371;BME280;16357;52.188;7.838;2022-10-10T04:51:12;100728.22;;;9.98;60.02
29371;BME280;16357;52.188;7.838;2022-10-10T04:53:38;100730.03;;;9.98;60.02
29371;BME280;16357;52.188;7.838;2022-10-10T04:56:05;100739.91;;;9.97;59.97
29371;BME280;16357;52.188;7.838;2022-10-10T04:58:31;100738.25;;;9.96;59.96
29371;BME280;16357;52.188;7.838;2022-10-10T05:00:58;100738.25;;;9.96;60.42
29371;BME280;16357;52.188;7.838;2022-10-10T05:03:24;100736.53;;;9.95;59.96
29371;BME280;16357;52.188;7.838;2022-10-10T05:05:51;100740.09;;;9.96;60.22
29371;BME280;16357;52.188;7.838;2022-10-10T05:08:18;100733.03;;;9.95;60.29
29371;BME280;16357;52.188;7.838;2022-10-10T05:10:46;100726.81;;;9.94;60.25
29371;BME280;16357;52.188;7.838;2022-10-10T05:13:14;100725.16;;;9.93;60.51
29371;BME280;16357;52.188;7.838;2022-10-10T05:15:41;100723.31;;;9.94;60.30
29371;BME280;16357;52.188;7.838;2022-10-10T05:18:08;100720.63;;;9.94;60.47
29371;BME280;16357;52.188;7.838;2022-10-10T05:20:34;100717.13;;;9.93;60.68
29371;BME280;16357;52.188;7.838;2022-10-10T05:23:02;100726.00;;;9.94;60.47
29371;BME280;16357;52.188;7.838;2022-10-10T05:25:28;100721.47;;;9.94;60.76
29371;BME280;16357;52.188;7.838;2022-10-10T05:27:55;100717.97;;;9.94;60.64
29371;BME280;16357;52.188;7.838;2022-10-10T05:30:21;100721.47;;;9.94;60.70
29371;BME280;16357;52.188;7.838;2022-10-10T05:32:47;100716.94;;;9.95;60.58
29371;BME280;16357;52.188;7.838;2022-10-10T05:35:15;100719.50;;;9.96;60.44
29371;BME280;16357;52.188;7.838;2022-10-10T05:37:41;100711.44;;;9.96;60.65
29371;BME280;16357;52.188;7.838;2022-10-10T05:40:08;100708.78;;;9.96;60.72
29371;BME280;16357;52.188;7.838;2022-10-10T05:42:34;100715.81;;;9.97;60.68
29371;BME280;16357;52.188;7.838;2022-10-10T05:45:01;100715.81;;;9.97;60.36
29371;BME280;16357;52.188;7.838;2022-10-10T05:47:27;100711.28;;;9.98;60.58
29371;BME280;16357;52.188;7.838;2022-10-10T05:49:53;100717.50;;;9.98;60.86
29371;BME280;16357;52.188;7.838;2022-10-10T05:52:20;100720.00;;;10.00;60.64
29371;BME280;16357;52.188;7.838;2022-10-10T05:54:46;100722.69;;;10.00;60.71
29371;BME280;16357;52.188;7.838;2022-10-10T05:57:12;100725.22;;;10.01;60.95
29371;BME280;16357;52.188;7.838;2022-10-10T05:59:41;100724.22;;;10.02;60.66
29371;BME280;16357;52.188;7.838;2022-10-10T06:02:08;100720.56;;;10.03;60.91
29371;BME280;16357;52.188;7.838;2022-10-10T06:04:34;100719.56;;;10.04;60.78
29371;BME280;16357;52.188;7.838;2022-10-10T06:07:01;100717.56;;;10.06;60.93
29371;BME280;16357;52.188;7.838;2022-10-10T06:09:27;100721.94;;;10.07;60.72
29371;BME280;16357;52.188;7.838;2022-10-10T06:11:53;100719.94;;;10.09;60.78
29371;BME280;16357;52.188;7.838;2022-10-10T06:14:20;100717.97;;;10.11;61.08
29371;BME280;16357;52.188;7.838;2022-10-10T06:16:46;100723.84;;;10.15;60.89
29371;BME280;16357;52.188;7.838;2022-10-10T06:19:12;100714.66;;;10.18;61.23
29371;BME280;16357;52.188;7.838;2022-10-10T06:21:40;100721.53;;;10.20;61.23
29371;BME280;16357;52.188;7.838;2022-10-10T06:24:06;100714.88;;;10.24;61.13
29371;BME280;16357;52.188;7.838;2022-10-10T06:26:33;100719.09;;;10.27;61.26
29371;BME280;16357;52.188;7.838;2022-10-10T06:29:00;100723.03;;;10.32;61.59
29371;BME280;16357;52.188;7.838;2022-10-10T06:31:26;100724.38;;;10.37;61.23
29371;BME280;16357;52.188;7.838;2022-10-10T06:33:52;100725.78;;;10.41;61.23
29371;BME280;16357;52.188;7.838;2022-10-10T06:36:19;100722.63;;;10.45;61.36
29371;BME280;16357;52.188;7.838;2022-10-10T06:38:45;100732.72;;;10.51;61.31
29371;BME280;16357;52.188;7.838;2022-10-10T06:41:12;100733.78;;;10.59;61.26
29371;BME280;16357;52.188;7.838;2022-10-10T06:43:38;100731.47;;;10.64;61.44
29371;BME280;16357;52.188;7.838;2022-10-10T06:46:06;100729.81;;;10.71;61.19
29371;BME280;16357;52.188;7.838;2022-10-10T06:48:33;100733.56;;;10.78;61.18
29371;BME280;16357;52.188;7.838;2022-10-10T06:51:01;100729.09;;;10.87;61.20
29371;BME280;16357;52.188;7.838;2022-10-10T06:53:30;100727.47;;;10.94;61.30
29371;BME280;16357;52.188;7.838;2022-10-10T06:55:57;100735.56;;;11.02;61.04
29371;BME280;16357;52.188;7.838;2022-10-10T06:58:25;100721.34;;;11.10;61.26
29371;BME280;16357;52.188;7.838;2022-10-10T07:00:53;100720.38;;;11.19;60.70
29371;BME280;16357;52.188;7.838;2022-10-10T07:03:21;100721.41;;;11.26;60.68
29371;BME280;16357;52.188;7.838;2022-10-10T07:05:53;100720.44;;;11.35;60.69
29371;BME280;16357;52.188;7.838;2022-10-10T07:08:20;100714.41;;;11.41;61.00
29371;BME280;16357;52.188;7.838;2022-10-10T07:10:46;100717.13;;;11.50;60.66
29371;BME280;16357;52.188;7.838;2022-10-10T07:13:13;100729.59;;;11.59;60.72
29371;BME280;16357;52.188;7.838;2022-10-10T07:15:41;100722.53;;;11.66;60.43
29371;BME280;16357;52.188;7.838;2022-10-10T07:18:07;100723.44;;;11.75;60.53
29371;BME280;16357;52.188;7.838;2022-10-10T07:20:34;100717.22;;;11.82;60.36
29371;BME280;16357;52.188;7.838;2022-10-10T07:23:02;100719.97;;;11.91;60.13
29371;BME280;16357;52.188;7.838;2022-10-10T07:25:29;100711.06;;;11.98;60.18
29371;BME280;16357;52.188;7.838;2022-10-10T07:27:56;100724.34;;;12.08;59.89
29371;BME280;16357;52.188;7.838;2022-10-10T07:30:23;100731.41;;;12.17;60.03
29371;BME280;16357;52.188;7.838;2022-10-10T07:35:29;100722.31;;;12.35;59.84
29371;BME280;16357;52.188;7.838;2022-10-10T07:37:56;100741.19;;;12.43;59.89
29371;BME280;16357;52.188;7.838;2022-10-10T07:40:23;100732.91;;;12.52;59.55
29371;BME280;16357;52.188;7.838;2022-10-10T07:42:49;100734.75;;;12.60;59.60
29371;BME280;16357;52.188;7.838;2022-10-10T07:45:16;100736.59;;;12.68;59.33
29371;BME280;16357;52.188;7.838;2022-10-10T07:47:43;100734.09;;;12.74;58.98
29371;BME280;16357;52.188;7.838;2022-10-10T07:50:10;100735.94;;;12.82;59.00
29371;BME280;16357;52.188;7.838;2022-10-10T07:52:38;100741.44;;;12.89;58.72
29371;BME280;16357;52.188;7.838;2022-10-10T07:55:05;100737.22;;;12.94;58.36
29371;BME280;16357;52.188;7.838;2022-10-10T07:57:31;100738.38;;;13.00;58.55
29371;BME280;16357;52.188;7.838;2022-10-10T08:00:06;100725.25;;;13.05;58.26
29371;BME280;16357;52.188;7.838;2022-10-10T08:02:33;100737.38;;;13.09;58.13
29371;BME280;16357;52.188;7.838;2022-10-10T08:04:59;100727.75;;;13.15;58.19
29371;BME280;16357;52.188;7.838;2022-10-10T08:07:26;100734.28;;;13.21;58.37
29371;BME280;16357;52.188;7.838;2022-10-10T08:09:53;100727.41;;;13.26;58.26
29371;BME280;16357;52.188;7.838;2022-10-10T08:12:19;100729.56;;;13.31;58.42
29371;BME280;16357;52.188;7.838;2022-10-10T08:14:46;100735.97;;;13.38;58.26
29371;BME280;16357;52.188;7.838;2022-10-10T08:17:12;100729.69;;;13.46;58.34
29371;BME280;16357;52.188;7.838;2022-10-10T08:19:38;100736.03;;;13.53;58.37
29371;BME280;16357;52.188;7.838;2022-10-10T08:22:05;100726.25;;;13.60;58.41
29371;BME280;16357;52.188;7.838;2022-10-10T08:24:31;100730.75;;;13.68;58.13
29371;BME280;16357;52.188;7.838;2022-10-10T08:26:58;100734.44;;;13.75;58.06
29371;BME280;16357;52.188;7.838;2022-10-10T08:29:24;100728.97;;;13.83;58.12
29371;BME280;16357;52.188;7.838;2022-10-10T08:31:50;100735.34;;;13.90;58.22
29371;BME280;16357;52.188;7.838;2022-10-10T08:34:17;100732.59;;;13.98;57.66
29371;BME280;16357;52.188;7.838;2022-10-10T08:36:43;100730.00;;;14.05;57.22
29371;BME280;16357;52.188;7.838;2022-10-10T08:39:10;100729.28;;;14.11;57.53
29371;BME280;16357;52.188;7.838;2022-10-10T08:41:44;100736.47;;;14.19;57.50
29371;BME280;16357;52.188;7.838;2022-10-10T08:46:52;100731.50;;;14.31;57.32
29371;BME280;16357;52.188;7.838;2022-10-10T08:49:50;100732.47;;;14.38;57.46
29371;BME280;16357;52.188;7.838;2022-10-10T08:52:37;100736.75;;;14.47;57.44
29371;BME280;16357;52.188;7.838;2022-10-10T08:55:11;100727.78;;;14.55;57.52
29371;BME280;16357;52.188;7.838;2022-10-10T08:57:47;100723.34;;;14.62;57.57
29371;BME280;16357;52.188;7.838;2022-10-10T09:00:19;100728.66;;;14.70;57.53
29371;BME280;16357;52.188;7.838;2022-10-10T09:02:54;100724.00;;;14.79;57.51
29371;BME280;16357;52.188;7.838;2022-10-10T09:08:35;100722.44;;;14.99;57.24
29371;BME280;16357;52.188;7.838;2022-10-10T09:11:17;100728.59;;;15.08;57.66
29371;BME280;16357;52.188;7.838;2022-10-10T09:13:59;100729.16;;;15.18;57.20
29371;BME280;16357;52.188;7.838;2022-10-10T09:22:24;100721.00;;;15.48;56.72
29371;BME280;16357;52.188;7.838;2022-10-10T09:25:14;100719.88;;;15.57;56.85
29371;BME280;16357;52.188;7.838;2022-10-10T09:27:55;100727.69;;;15.67;56.73
29371;BME280;16357;52.188;7.838;2022-10-10T09:30:23;100725.75;;;15.75;56.92
29371;BME280;16357;52.188;7.838;2022-10-10T09:33:00;100730.66;;;15.87;56.48
29371;BME280;16357;52.188;7.838;2022-10-10T09:35:32;100727.63;;;15.96;56.48
29371;BME280;16357;52.188;7.838;2022-10-10T09:40:38;100725.34;;;16.15;55.84
29371;BME280;16357;52.188;7.838;2022-10-10T09:43:16;100724.16;;;16.24;56.13
29371;BME280;16357;52.188;7.838;2022-10-10T09:45:47;100724.88;;;16.33;55.91
29371;BME280;16357;52.188;7.838;2022-10-10T09:48:16;100729.31;;;16.40;55.95
29371;BME280;16357;52.188;7.838;2022-10-10T09:50:43;100727.31;;;16.49;55.67
29371;BME280;16357;52.188;7.838;2022-10-10T09:53:14;100723.22;;;16.60;56.00
29371;BME280;16357;52.188;7.838;2022-10-10T09:55:43;100718.31;;;16.70;56.02
29371;BME280;16357;52.188;7.838;2022-10-10T10:01:16;100722.06;;;16.97;55.73
29371;BME280;16357;52.188;7.838;2022-10-10T10:03:44;100724.00;;;17.10;55.14
29371;BME280;16357;52.188;7.838;2022-10-10T10:06:49;100721.19;;;17.25;54.66
29371;BME280;16357;52.188;7.838;2022-10-10T10:09:18;100730.41;;;17.37;54.89
29371;BME280;16357;52.188;7.838;2022-10-10T10:11:46;100723.38;;;17.49;54.45
29371;BME280;16357;52.188;7.838;2022-10-10T10:14:23;100720.53;;;17.64;54.13
29371;BME280;16357;52.188;7.838;2022-10-10T10:16:55;100724.28;;;17.76;53.69
29371;BME280;16357;52.188;7.838;2022-10-10T10:19:32;100726.25;;;17.89;53.71
29371;BME280;16357;52.188;7.838;2022-10-10T10:21:59;100720.84;;;18.03;53.73
29371;BME280;16357;52.188;7.838;2022-10-10T10:24:32;100723.16;;;18.19;53.67
29371;BME280;16357;52.188;7.838;2022-10-10T10:27:10;100716.50;;;18.35;52.94
29371;BME280;16357;52.188;7.838;2022-10-10T10:29:46;100716.28;;;18.50;52.54
29371;BME280;16357;52.188;7.838;2022-10-10T10:43:03;100719.56;;;19.18;51.48
29371;BME280;16357;52.188;7.838;2022-10-10T10:48:45;100723.03;;;19.45;51.11
29371;BME280;16357;52.188;7.838;2022-10-10T10:51:19;100713.34;;;19.56;52.01
29371;BME280;16357;52.188;7.838;2022-10-10T10:54:10;100711.44;;;19.63;50.75
29371;BME280;16357;52.188;7.838;2022-10-10T10:56:52;100710.00;;;19.67;50.08
29371;BME280;16357;52.188;7.838;2022-10-10T11:03:21;100705.94;;;19.83;50.10
29371;BME280;16357;52.188;7.838;2022-10-10T11:09:34;100706.25;;;20.00;49.82
29371;BME280;16357;52.188;7.838;2022-10-10T11:12:41;100706.78;;;20.09;49.53
29371;BME280;16357;52.188;7.838;2022-10-10T11:18:28;100717.22;;;20.18;48.99
29371;BME280;16357;52.188;7.838;2022-10-10T11:21:10;100706.13;;;20.20;48.72
29371;BME280;16357;52.188;7.838;2022-10-10T11:23:43;100708.38;;;20.23;48.35
29371;BME280;16357;52.188;7.838;2022-10-10T11:26:29;100718.00;;;20.26;48.94
29371;BME280;16357;52.188;7.838;2022-10-10T11:29:03;100714.22;;;20.27;48.46
29371;BME280;16357;52.188;7.838;2022-10-10T11:31:52;100720.09;;;20.30;48.68
29371;BME280;16357;52.188;7.838;2022-10-10T11:35:11;100715.63;;;20.36;49.07
29371;BME280;16357;52.188;7.838;2022-10-10T11:37:43;100722.91;;;20.42;48.54
29371;BME280;16357;52.188;7.838;2022-10-10T11:43:45;100715.88;;;20.59;48.35
29371;BME280;16357;52.188;7.838;2022-10-10T11:49:12;100709.03;;;20.75;47.95
29371;BME280;16357;52.188;7.838;2022-10-10T11:51:59;100711.69;;;20.82;47.92
29371;BME280;16357;52.188;7.838;2022-10-10T11:55:01;100716.00;;;20.90;47.73
29371;BME280;16357;52.188;7.838;2022-10-10T11:57:43;100716.16;;;20.95;47.48
29371;BME280;16357;52.188;7.838;2022-10-10T12:00:13;100720.13;;;20.99;46.82
29371;BME280;16357;52.188;7.838;2022-10-10T12:02:41;100719.66;;;21.02;46.72
29371;BME280;16357;52.188;7.838;2022-10-10T12:05:19;100719.00;;;21.07;46.81
29371;BME280;16357;52.188;7.838;2022-10-10T12:10:34;100719.16;;;21.12;46.01
29371;BME280;16357;52.188;7.838;2022-10-10T12:15:50;100718.84;;;21.20;45.82
29371;BME280;16357;52.188;7.838;2022-10-10T12:18:30;100720.88;;;21.24;45.80
29371;BME280;16357;52.188;7.838;2022-10-10T12:21:06;100716.84;;;21.27;45.67
29371;BME280;16357;52.188;7.838;2022-10-10T12:23:33;100711.78;;;21.31;45.21
29371;BME280;16357;52.188;7.838;2022-10-10T12:26:00;100720.56;;;21.33;45.17
29371;BME280;16357;52.188;7.838;2022-10-10T12:29:05;100720.53;;;21.39;45.22
29371;BME280;16357;52.188;7.838;2022-10-10T12:31:33;100725.78;;;21.41;44.67
29371;BME280;16357;52.188;7.838;2022-10-10T12:34:13;100721.75;;;21.43;44.75
29371;BME280;16357;52.188;7.838;2022-10-10T12:36:53;100717.75;;;21.46;44.73
29371;BME280;16357;52.188;7.838;2022-10-10T12:46:45;100706.94;;;21.51;43.40
29371;BME280;16357;52.188;7.838;2022-10-10T12:49:20;100705.88;;;21.52;43.86
29371;BME280;16357;52.188;7.838;2022-10-10T12:52:07;100713.84;;;21.54;44.09
29371;BME280;16357;52.188;7.838;2022-10-10T12:54:41;100718.25;;;21.55;44.31
29371;BME280;16357;52.188;7.838;2022-10-10T12:57:24;100715.88;;;21.58;44.62
29371;BME280;16357;52.188;7.838;2022-10-10T12:59:53;100717.31;;;21.61;43.86
29371;BME280;16357;52.188;7.838;2022-10-10T13:02:26;100706.53;;;21.66;43.47
29371;BME280;16357;52.188;7.838;2022-10-10T13:04:56;100712.97;;;21.72;43.27
29371;BME280;16357;52.188;7.838;2022-10-10T13:07:24;100719.66;;;21.76;42.89
29371;BME280;16357;52.188;7.838;2022-10-10T13:09:52;100713.94;;;21.77;42.81
29371;BME280;16357;52.188;7.838;2022-10-10T13:12:27;100715.63;;;21.78;42.48
29371;BME280;16357;52.188;7.838;2022-10-10T13:14:55;100717.75;;;21.76;42.18
29371;BME280;16357;52.188;7.838;2022-10-10T13:17:26;100713.59;;;21.74;42.05
29371;BME280;16357;52.188;7.838;2022-10-10T13:19:54;100718.69;;;21.70;42.50
29371;BME280;16357;52.188;7.838;2022-10-10T13:22:21;100716.16;;;21.68;42.27
29371;BME280;16357;52.188;7.838;2022-10-10T13:24:49;100719.97;;;21.67;42.35
29371;BME280;16357;52.188;7.838;2022-10-10T13:29:45;100731.25;;;21.71;42.58
29371;BME280;16357;52.188;7.838;2022-10-10T13:32:14;100728.06;;;21.74;42.87
29371;BME280;16357;52.188;7.838;2022-10-10T13:35:03;100732.63;;;21.80;43.04
29371;BME280;16357;52.188;7.838;2022-10-10T13:37:31;100711.34;;;21.82;42.55
29371;BME280;16357;52.188;7.838;2022-10-10T13:39:58;100729.78;;;21.87;41.91
29371;BME280;16357;52.188;7.838;2022-10-10T13:42:37;100732.88;;;21.90;42.73
29371;BME280;16357;52.188;7.838;2022-10-10T13:48:10;100746.94;;;21.94;42.80
29371;BME280;16357;52.188;7.838;2022-10-10T13:58:26;100750.69;;;21.93;42.39
29371;BME280;16357;52.188;7.838;2022-10-10T14:00:55;100745.25;;;21.93;42.46
29371;BME280;16357;52.188;7.838;2022-10-10T14:03:22;100744.66;;;21.91;42.20
29371;BME280;16357;52.188;7.838;2022-10-10T14:05:48;100748.69;;;21.88;42.17
29371;BME280;16357;52.188;7.838;2022-10-10T14:08:18;100753.53;;;21.86;42.29
29371;BME280;16357;52.188;7.838;2022-10-10T14:10:57;100755.06;;;21.82;42.73
29371;BME280;16357;52.188;7.838;2022-10-10T14:13:25;100755.97;;;21.76;42.29
29371;BME280;16357;52.188;7.838;2022-10-10T14:15:52;100766.97;;;21.69;42.06
29371;BME280;16357;52.188;7.838;2022-10-10T14:18:22;100772.53;;;21.63;42.32
29371;BME280;16357;52.188;7.838;2022-10-10T14:20:49;100779.13;;;21.55;42.25
29371;BME280;16357;52.188;7.838;2022-10-10T14:23:16;100776.72;;;21.47;42.71
29371;BME280;16357;52.188;7.838;2022-10-10T14:25:45;100780.38;;;21.41;42.72
29371;BME280;16357;52.188;7.838;2022-10-10T14:28:22;100779.56;;;21.34;43.01
29371;BME280;16357;52.188;7.838;2022-10-10T14:30:50;100781.75;;;21.25;42.96
29371;BME280;16357;52.188;7.838;2022-10-10T14:33:17;100781.00;;;21.18;43.12
29371;BME280;16357;52.188;7.838;2022-10-10T14:35:45;100790.09;;;21.12;43.38
29371;BME280;16357;52.188;7.838;2022-10-10T14:38:13;100789.31;;;21.04;43.79
29371;BME280;16357;52.188;7.838;2022-10-10T14:40:45;100789.75;;;21.01;43.72
29371;BME280;16357;52.188;7.838;2022-10-10T14:43:12;100792.31;;;20.96;43.73